sensor_id;sensor_type;location;lat;lon;timestamp;P1;durP1;ratioP1;P2;durP2;ratioP2
75932;SDS011;64803;52.356;5.310;2023-04-24T00:00:03;8.65;;;4.10;;
75932;SDS011;64803;52.356;5.310;2023-04-24T00:02:34;9.82;;;3.78;;
75932;SDS011;64803;52.356;5.310;2023-04-24T00:05:04;10.45;;;5.00;;
75932;SDS011;64803;52.356;5.310;2023-04-24T00:07:31;7.82;;;3.92;;
75932;SDS011;64803;52.356;5.310;2023-04-24T00:09:57;9.13;;;4.70;;
75932;SDS011;64803;52.356;5.310;2023-04-24T00:12:23;11.10;;;5.63;;
75932;SDS011;64803;52.356;5.310;2023-04-24T00:14:50;15.38;;;5.93;;
75932;SDS011;64803;52.356;5.310;2023-04-24T00:17:16;14.10;;;6.20;;
75932;SDS011;64803;52.356;5.310;2023-04-24T00:19:46;11.63;;;5.38;;
75932;SDS011;64803;52.356;5.310;2023-04-24T00:22:12;10.25;;;5.18;;
75932;SDS011;64803;52.356;5.310;2023-04-24T00:24:39;9.77;;;5.07;;
75932;SDS011;64803;52.356;5.310;2023-04-24T00:27:05;10.80;;;5.10;;
75932;SDS011;64803;52.356;5.310;2023-04-24T00:29:31;11.68;;;6.20;;
75932;SDS011;64803;52.356;5.310;2023-04-24T00:31:57;10.90;;;4.82;;
75932;SDS011;64803;52.356;5.310;2023-04-24T00:34:23;10.70;;;5.68;;
75932;SDS011;64803;52.356;5.310;2023-04-24T00:36:49;10.43;;;4.82;;
75932;SDS011;64803;52.356;5.310;2023-04-24T00:39:18;11.95;;;5.20;;
75932;SDS011;64803;52.356;5.310;2023-04-24T00:41:45;11.20;;;5.80;;
75932;SDS011;64803;52.356;5.310;2023-04-24T00:44:11;6.78;;;2.92;;
75932;SDS011;64803;52.356;5.310;2023-04-24T00:46:38;9.75;;;4.22;;
75932;SDS011;64803;52.356;5.310;2023-04-24T00:49:05;8.70;;;4.93;;
75932;SDS011;64803;52.356;5.310;2023-04-24T00:51:32;9.23;;;4.50;;
75932;SDS011;64803;52.356;5.310;2023-04-24T00:53:58;8.52;;;3.85;;
75932;SDS011;64803;52.356;5.310;2023-04-24T00:56:26;8.02;;;2.35;;
75932;SDS011;64803;52.356;5.310;2023-04-24T00:58:52;6.07;;;2.05;;
75932;SDS011;64803;52.356;5.310;2023-04-24T01:01:19;6.70;;;2.50;;
75932;SDS011;64803;52.356;5.310;2023-04-24T01:03:46;6.63;;;2.95;;
75932;SDS011;64803;52.356;5.310;2023-04-24T01:06:14;9.07;;;3.88;;
75932;SDS011;64803;52.356;5.310;2023-04-24T01:08:41;7.38;;;2.95;;
75932;SDS011;64803;52.356;5.310;2023-04-24T01:11:07;3.97;;;1.15;;
75932;SDS011;64803;52.356;5.310;2023-04-24T01:13:33;3.85;;;1.30;;
75932;SDS011;64803;52.356;5.310;2023-04-24T01:16:00;4.88;;;1.05;;
75932;SDS011;64803;52.356;5.310;2023-04-24T01:18:26;5.22;;;0.90;;
75932;SDS011;64803;52.356;5.310;2023-04-24T01:20:53;5.78;;;0.95;;
75932;SDS011;64803;52.356;5.310;2023-04-24T01:23:23;4.68;;;1.52;;
75932;SDS011;64803;52.356;5.310;2023-04-24T01:25:51;3.35;;;1.40;;
75932;SDS011;64803;52.356;5.310;2023-04-24T01:28:18;7.85;;;3.50;;
75932;SDS011;64803;52.356;5.310;2023-04-24T01:30:44;7.63;;;3.42;;
75932;SDS011;64803;52.356;5.310;2023-04-24T01:33:10;9.43;;;3.80;;
75932;SDS011;64803;52.356;5.310;2023-04-24T01:35:37;8.52;;;3.42;;
75932;SDS011;64803;52.356;5.310;2023-04-24T01:38:03;4.28;;;1.42;;
75932;SDS011;64803;52.356;5.310;2023-04-24T01:40:30;5.13;;;1.75;;
75932;SDS011;64803;52.356;5.310;2023-04-24T01:42:57;3.78;;;1.30;;
75932;SDS011;64803;52.356;5.310;2023-04-24T01:45:24;2.65;;;0.98;;
75932;SDS011;64803;52.356;5.310;2023-04-24T01:47:50;2.58;;;0.80;;
75932;SDS011;64803;52.356;5.310;2023-04-24T01:50:17;0.85;;;0.40;;
75932;SDS011;64803;52.356;5.310;2023-04-24T01:52:44;3.25;;;0.77;;
75932;SDS011;64803;52.356;5.310;2023-04-24T01:55:10;2.88;;;0.90;;
75932;SDS011;64803;52.356;5.310;2023-04-24T01:57:37;2.63;;;0.90;;
75932;SDS011;64803;52.356;5.310;2023-04-24T02:00:07;4.95;;;1.05;;
75932;SDS011;64803;52.356;5.310;2023-04-24T02:02:39;3.55;;;1.20;;
75932;SDS011;64803;52.356;5.310;2023-04-24T02:05:07;1.77;;;0.63;;
75932;SDS011;64803;52.356;5.310;2023-04-24T02:07:35;2.72;;;0.90;;
75932;SDS011;64803;52.356;5.310;2023-04-24T02:10:02;3.97;;;1.00;;
75932;SDS011;64803;52.356;5.310;2023-04-24T02:12:29;2.85;;;0.90;;
75932;SDS011;64803;52.356;5.310;2023-04-24T02:14:55;3.35;;;0.90;;
75932;SDS011;64803;52.356;5.310;2023-04-24T02:17:21;5.68;;;0.93;;
75932;SDS011;64803;52.356;5.310;2023-04-24T02:19:48;2.35;;;0.73;;
75932;SDS011;64803;52.356;5.310;2023-04-24T02:22:14;4.43;;;1.02;;
75932;SDS011;64803;52.356;5.310;2023-04-24T02:24:41;4.20;;;1.05;;
75932;SDS011;64803;52.356;5.310;2023-04-24T02:27:07;1.77;;;0.63;;
75932;SDS011;64803;52.356;5.310;2023-04-24T02:29:33;3.53;;;1.20;;
75932;SDS011;64803;52.356;5.310;2023-04-24T02:31:59;3.25;;;0.90;;
75932;SDS011;64803;52.356;5.310;2023-04-24T02:34:25;1.88;;;0.60;;
75932;SDS011;64803;52.356;5.310;2023-04-24T02:36:51;1.35;;;0.45;;
75932;SDS011;64803;52.356;5.310;2023-04-24T02:39:19;5.22;;;1.15;;
75932;SDS011;64803;52.356;5.310;2023-04-24T02:41:46;1.85;;;0.60;;
75932;SDS011;64803;52.356;5.310;2023-04-24T02:44:12;2.75;;;0.90;;
75932;SDS011;64803;52.356;5.310;2023-04-24T02:46:39;3.13;;;0.75;;
75932;SDS011;64803;52.356;5.310;2023-04-24T02:51:32;0.65;;;0.28;;
75932;SDS011;64803;52.356;5.310;2023-04-24T02:53:58;1.85;;;0.60;;
75932;SDS011;64803;52.356;5.310;2023-04-24T02:56:24;1.30;;;0.35;;
75932;SDS011;64803;52.356;5.310;2023-04-24T02:58:51;1.65;;;0.43;;
75932;SDS011;64803;52.356;5.310;2023-04-24T03:01:17;1.83;;;0.50;;
75932;SDS011;64803;52.356;5.310;2023-04-24T03:03:43;3.50;;;0.57;;
75932;SDS011;64803;52.356;5.310;2023-04-24T03:06:09;1.27;;;0.40;;
75932;SDS011;64803;52.356;5.310;2023-04-24T03:08:36;2.53;;;0.70;;
75932;SDS011;64803;52.356;5.310;2023-04-24T03:11:02;0.55;;;0.20;;
75932;SDS011;64803;52.356;5.310;2023-04-24T03:13:28;3.95;;;0.70;;
75932;SDS011;64803;52.356;5.310;2023-04-24T03:15:54;2.03;;;0.70;;
75932;SDS011;64803;52.356;5.310;2023-04-24T03:18:20;3.78;;;1.15;;
75932;SDS011;64803;52.356;5.310;2023-04-24T03:20:48;5.43;;;0.90;;
75932;SDS011;64803;52.356;5.310;2023-04-24T03:23:14;3.05;;;0.90;;
75932;SDS011;64803;52.356;5.310;2023-04-24T03:25:41;2.55;;;0.90;;
75932;SDS011;64803;52.356;5.310;2023-04-24T03:28:09;4.38;;;1.10;;
75932;SDS011;64803;52.356;5.310;2023-04-24T03:30:42;4.20;;;1.20;;
75932;SDS011;64803;52.356;5.310;2023-04-24T03:33:09;3.25;;;1.17;;
75932;SDS011;64803;52.356;5.310;2023-04-24T03:35:40;5.40;;;1.67;;
75932;SDS011;64803;52.356;5.310;2023-04-24T03:38:09;1.83;;;0.47;;
75932;SDS011;64803;52.356;5.310;2023-04-24T03:40:41;5.70;;;1.35;;
75932;SDS011;64803;52.356;5.310;2023-04-24T03:43:28;4.82;;;1.52;;
75932;SDS011;64803;52.356;5.310;2023-04-24T03:45:56;3.10;;;1.23;;
75932;SDS011;64803;52.356;5.310;2023-04-24T03:48:22;3.80;;;1.00;;
75932;SDS011;64803;52.356;5.310;2023-04-24T03:50:48;4.85;;;1.20;;
75932;SDS011;64803;52.356;5.310;2023-04-24T03:53:15;2.80;;;0.90;;
75932;SDS011;64803;52.356;5.310;2023-04-24T03:55:41;4.03;;;1.08;;
75932;SDS011;64803;52.356;5.310;2023-04-24T03:58:08;2.95;;;0.75;;
75932;SDS011;64803;52.356;5.310;2023-04-24T04:00:34;2.65;;;0.75;;
75932;SDS011;64803;52.356;5.310;2023-04-24T04:03:27;2.55;;;0.73;;
75932;SDS011;64803;52.356;5.310;2023-04-24T04:05:53;1.85;;;0.70;;
75932;SDS011;64803;52.356;5.310;2023-04-24T04:08:20;0.40;;;0.22;;
75932;SDS011;64803;52.356;5.310;2023-04-24T04:10:46;1.67;;;0.50;;
75932;SDS011;64803;52.356;5.310;2023-04-24T04:13:12;1.42;;;0.40;;
75932;SDS011;64803;52.356;5.310;2023-04-24T04:15:38;1.17;;;0.35;;
75932;SDS011;64803;52.356;5.310;2023-04-24T04:18:05;2.47;;;0.50;;
75932;SDS011;64803;52.356;5.310;2023-04-24T04:20:31;1.35;;;0.50;;
75932;SDS011;64803;52.356;5.310;2023-04-24T04:22:57;2.97;;;0.40;;
75932;SDS011;64803;52.356;5.310;2023-04-24T04:25:34;1.55;;;0.57;;
75932;SDS011;64803;52.356;5.310;2023-04-24T04:28:00;1.65;;;0.50;;
75932;SDS011;64803;52.356;5.310;2023-04-24T04:30:27;1.38;;;0.40;;
75932;SDS011;64803;52.356;5.310;2023-04-24T04:33:01;3.25;;;0.70;;
75932;SDS011;64803;52.356;5.310;2023-04-24T04:35:28;1.58;;;0.55;;
75932;SDS011;64803;52.356;5.310;2023-04-24T04:37:54;2.90;;;0.75;;
75932;SDS011;64803;52.356;5.310;2023-04-24T04:40:53;1.23;;;0.35;;
75932;SDS011;64803;52.356;5.310;2023-04-24T04:43:23;1.67;;;0.50;;
75932;SDS011;64803;52.356;5.310;2023-04-24T04:45:51;2.35;;;0.70;;
75932;SDS011;64803;52.356;5.310;2023-04-24T04:48:36;3.53;;;0.70;;
75932;SDS011;64803;52.356;5.310;2023-04-24T04:51:05;5.03;;;1.00;;
75932;SDS011;64803;52.356;5.310;2023-04-24T04:53:31;3.10;;;0.80;;
75932;SDS011;64803;52.356;5.310;2023-04-24T04:55:57;4.22;;;0.90;;
75932;SDS011;64803;52.356;5.310;2023-04-24T04:58:39;2.22;;;0.70;;
75932;SDS011;64803;52.356;5.310;2023-04-24T05:01:08;6.70;;;1.30;;
75932;SDS011;64803;52.356;5.310;2023-04-24T05:03:39;4.22;;;0.90;;
75932;SDS011;64803;52.356;5.310;2023-04-24T05:06:09;6.63;;;1.10;;
75932;SDS011;64803;52.356;5.310;2023-04-24T05:08:37;2.67;;;0.77;;
75932;SDS011;64803;52.356;5.310;2023-04-24T05:11:07;3.53;;;0.85;;
75932;SDS011;64803;52.356;5.310;2023-04-24T05:13:34;6.75;;;0.75;;
75932;SDS011;64803;52.356;5.310;2023-04-24T05:16:01;5.85;;;0.90;;
75932;SDS011;64803;52.356;5.310;2023-04-24T05:20:56;3.95;;;1.17;;
75932;SDS011;64803;52.356;5.310;2023-04-24T05:23:23;3.35;;;0.80;;
75932;SDS011;64803;52.356;5.310;2023-04-24T05:25:52;4.30;;;1.20;;
75932;SDS011;64803;52.356;5.310;2023-04-24T05:28:19;4.82;;;1.02;;
75932;SDS011;64803;52.356;5.310;2023-04-24T05:30:55;5.85;;;2.05;;
75932;SDS011;64803;52.356;5.310;2023-04-24T05:33:23;2.90;;;0.90;;
75932;SDS011;64803;52.356;5.310;2023-04-24T05:35:49;3.97;;;1.00;;
75932;SDS011;64803;52.356;5.310;2023-04-24T05:38:15;3.13;;;0.88;;
75932;SDS011;64803;52.356;5.310;2023-04-24T05:40:45;5.38;;;1.52;;
75932;SDS011;64803;52.356;5.310;2023-04-24T05:43:12;4.18;;;1.00;;
75932;SDS011;64803;52.356;5.310;2023-04-24T05:45:39;4.88;;;1.13;;
75932;SDS011;64803;52.356;5.310;2023-04-24T05:48:05;2.97;;;0.70;;
75932;SDS011;64803;52.356;5.310;2023-04-24T05:50:32;3.78;;;1.08;;
75932;SDS011;64803;52.356;5.310;2023-04-24T05:52:58;3.35;;;0.70;;
75932;SDS011;64803;52.356;5.310;2023-04-24T05:55:30;4.60;;;1.00;;
75932;SDS011;64803;52.356;5.310;2023-04-24T05:57:56;5.25;;;1.20;;
75932;SDS011;64803;52.356;5.310;2023-04-24T06:00:24;5.80;;;1.50;;
75932;SDS011;64803;52.356;5.310;2023-04-24T06:02:59;2.22;;;0.70;;
75932;SDS011;64803;52.356;5.310;2023-04-24T06:05:26;1.20;;;0.63;;
75932;SDS011;64803;52.356;5.310;2023-04-24T06:07:52;7.88;;;3.08;;
75932;SDS011;64803;52.356;5.310;2023-04-24T06:10:20;16.83;;;8.00;;
75932;SDS011;64803;52.356;5.310;2023-04-24T06:12:46;23.27;;;10.57;;
75932;SDS011;64803;52.356;5.310;2023-04-24T06:15:16;18.90;;;7.70;;
75932;SDS011;64803;52.356;5.310;2023-04-24T06:17:57;24.00;;;11.05;;
75932;SDS011;64803;52.356;5.310;2023-04-24T06:20:23;29.33;;;9.93;;
75932;SDS011;64803;52.356;5.310;2023-04-24T06:22:50;30.08;;;11.38;;
75932;SDS011;64803;52.356;5.310;2023-04-24T06:25:16;31.10;;;10.90;;
75932;SDS011;64803;52.356;5.310;2023-04-24T06:27:42;22.27;;;9.55;;
75932;SDS011;64803;52.356;5.310;2023-04-24T06:30:09;25.80;;;11.15;;
75932;SDS011;64803;52.356;5.310;2023-04-24T06:32:35;26.00;;;9.95;;
75932;SDS011;64803;52.356;5.310;2023-04-24T06:35:01;19.50;;;8.35;;
75932;SDS011;64803;52.356;5.310;2023-04-24T06:37:27;25.23;;;10.32;;
75932;SDS011;64803;52.356;5.310;2023-04-24T06:39:54;21.08;;;10.00;;
75932;SDS011;64803;52.356;5.310;2023-04-24T06:42:20;21.70;;;9.82;;
75932;SDS011;64803;52.356;5.310;2023-04-24T06:44:49;23.73;;;10.90;;
75932;SDS011;64803;52.356;5.310;2023-04-24T06:47:15;24.13;;;9.52;;
75932;SDS011;64803;52.356;5.310;2023-04-24T06:49:41;25.52;;;12.35;;
75932;SDS011;64803;52.356;5.310;2023-04-24T06:52:07;20.80;;;8.65;;
75932;SDS011;64803;52.356;5.310;2023-04-24T06:54:33;20.05;;;10.93;;
75932;SDS011;64803;52.356;5.310;2023-04-24T06:56:59;22.58;;;8.77;;
75932;SDS011;64803;52.356;5.310;2023-04-24T06:59:28;18.45;;;7.25;;
75932;SDS011;64803;52.356;5.310;2023-04-24T07:01:55;17.25;;;6.80;;
75932;SDS011;64803;52.356;5.310;2023-04-24T07:04:22;18.73;;;7.28;;
75932;SDS011;64803;52.356;5.310;2023-04-24T07:06:48;18.30;;;6.93;;
75932;SDS011;64803;52.356;5.310;2023-04-24T07:09:19;16.38;;;6.13;;
75932;SDS011;64803;52.356;5.310;2023-04-24T07:11:45;26.00;;;10.20;;
75932;SDS011;64803;52.356;5.310;2023-04-24T07:14:18;19.27;;;8.10;;
75932;SDS011;64803;52.356;5.310;2023-04-24T07:16:45;19.02;;;6.63;;
75932;SDS011;64803;52.356;5.310;2023-04-24T07:19:11;15.48;;;4.93;;
75932;SDS011;64803;52.356;5.310;2023-04-24T07:21:38;13.15;;;5.50;;
75932;SDS011;64803;52.356;5.310;2023-04-24T07:24:04;23.15;;;7.75;;
75932;SDS011;64803;52.356;5.310;2023-04-24T07:26:30;13.10;;;5.90;;
75932;SDS011;64803;52.356;5.310;2023-04-24T07:28:56;15.43;;;6.75;;
75932;SDS011;64803;52.356;5.310;2023-04-24T07:31:23;22.05;;;6.30;;
75932;SDS011;64803;52.356;5.310;2023-04-24T07:33:49;8.38;;;4.03;;
75932;SDS011;64803;52.356;5.310;2023-04-24T07:36:15;12.93;;;5.80;;
75932;SDS011;64803;52.356;5.310;2023-04-24T07:38:44;13.13;;;5.32;;
75932;SDS011;64803;52.356;5.310;2023-04-24T07:41:12;10.73;;;3.47;;
75932;SDS011;64803;52.356;5.310;2023-04-24T07:43:39;19.73;;;6.63;;
75932;SDS011;64803;52.356;5.310;2023-04-24T07:46:06;10.18;;;4.40;;
75932;SDS011;64803;52.356;5.310;2023-04-24T07:48:32;7.53;;;4.28;;
75932;SDS011;64803;52.356;5.310;2023-04-24T07:50:58;15.48;;;6.05;;
75932;SDS011;64803;52.356;5.310;2023-04-24T07:53:24;11.20;;;4.47;;
75932;SDS011;64803;52.356;5.310;2023-04-24T07:55:50;16.67;;;5.10;;
75932;SDS011;64803;52.356;5.310;2023-04-24T07:58:16;14.90;;;5.13;;
75932;SDS011;64803;52.356;5.310;2023-04-24T08:00:42;13.93;;;4.05;;
75932;SDS011;64803;52.356;5.310;2023-04-24T08:03:08;11.75;;;4.13;;
75932;SDS011;64803;52.356;5.310;2023-04-24T08:05:34;9.75;;;4.65;;
75932;SDS011;64803;52.356;5.310;2023-04-24T08:08:00;18.25;;;5.32;;
75932;SDS011;64803;52.356;5.310;2023-04-24T08:10:26;11.38;;;3.67;;
75932;SDS011;64803;52.356;5.310;2023-04-24T08:12:52;19.33;;;3.70;;
75932;SDS011;64803;52.356;5.310;2023-04-24T08:15:18;13.10;;;3.28;;
75932;SDS011;64803;52.356;5.310;2023-04-24T08:17:44;11.80;;;3.15;;
75932;SDS011;64803;52.356;5.310;2023-04-24T08:20:13;18.90;;;3.35;;
75932;SDS011;64803;52.356;5.310;2023-04-24T08:22:39;17.05;;;3.95;;
75932;SDS011;64803;52.356;5.310;2023-04-24T08:25:06;10.13;;;2.92;;
75932;SDS011;64803;52.356;5.310;2023-04-24T08:27:33;13.38;;;2.65;;
75932;SDS011;64803;52.356;5.310;2023-04-24T08:30:00;17.17;;;3.63;;
75932;SDS011;64803;52.356;5.310;2023-04-24T08:32:26;7.72;;;2.15;;
75932;SDS011;64803;52.356;5.310;2023-04-24T08:34:55;12.07;;;2.92;;
75932;SDS011;64803;52.356;5.310;2023-04-24T08:37:22;13.88;;;2.80;;
75932;SDS011;64803;52.356;5.310;2023-04-24T08:39:49;17.63;;;2.78;;
75932;SDS011;64803;52.356;5.310;2023-04-24T08:42:17;14.82;;;2.85;;
75932;SDS011;64803;52.356;5.310;2023-04-24T08:44:43;14.07;;;2.03;;
75932;SDS011;64803;52.356;5.310;2023-04-24T08:47:10;14.10;;;1.98;;
75932;SDS011;64803;52.356;5.310;2023-04-24T08:49:37;17.02;;;3.17;;
75932;SDS011;64803;52.356;5.310;2023-04-24T08:52:04;8.52;;;1.80;;
75932;SDS011;64803;52.356;5.310;2023-04-24T08:54:31;12.00;;;1.88;;
75932;SDS011;64803;52.356;5.310;2023-04-24T08:56:59;27.88;;;3.25;;
75932;SDS011;64803;52.356;5.310;2023-04-24T08:59:32;7.97;;;2.00;;
75932;SDS011;64803;52.356;5.310;2023-04-24T09:01:59;11.32;;;1.90;;
75932;SDS011;64803;52.356;5.310;2023-04-24T09:04:25;9.80;;;1.90;;
75932;SDS011;64803;52.356;5.310;2023-04-24T09:06:55;5.45;;;1.92;;
75932;SDS011;64803;52.356;5.310;2023-04-24T09:09:23;11.43;;;1.58;;
75932;SDS011;64803;52.356;5.310;2023-04-24T09:11:50;6.78;;;1.50;;
75932;SDS011;64803;52.356;5.310;2023-04-24T09:14:19;8.20;;;1.33;;
75932;SDS011;64803;52.356;5.310;2023-04-24T09:16:46;9.75;;;1.88;;
75932;SDS011;64803;52.356;5.310;2023-04-24T09:19:12;7.75;;;2.28;;
75932;SDS011;64803;52.356;5.310;2023-04-24T09:21:38;10.45;;;2.10;;
75932;SDS011;64803;52.356;5.310;2023-04-24T09:24:06;9.55;;;2.00;;
75932;SDS011;64803;52.356;5.310;2023-04-24T09:26:39;5.97;;;1.35;;
75932;SDS011;64803;52.356;5.310;2023-04-24T09:29:05;6.90;;;1.98;;
75932;SDS011;64803;52.356;5.310;2023-04-24T09:31:31;14.25;;;2.05;;
75932;SDS011;64803;52.356;5.310;2023-04-24T09:33:59;7.28;;;1.60;;
75932;SDS011;64803;52.356;5.310;2023-04-24T09:36:35;8.52;;;1.50;;
75932;SDS011;64803;52.356;5.310;2023-04-24T09:39:05;6.93;;;1.30;;
75932;SDS011;64803;52.356;5.310;2023-04-24T09:44:15;6.80;;;1.70;;
75932;SDS011;64803;52.356;5.310;2023-04-24T09:46:42;11.38;;;1.77;;
75932;SDS011;64803;52.356;5.310;2023-04-24T09:49:14;5.43;;;1.27;;
75932;SDS011;64803;52.356;5.310;2023-04-24T09:51:42;11.07;;;1.65;;
75932;SDS011;64803;52.356;5.310;2023-04-24T09:54:15;5.03;;;0.95;;
75932;SDS011;64803;52.356;5.310;2023-04-24T09:56:52;4.80;;;1.20;;
75932;SDS011;64803;52.356;5.310;2023-04-24T09:59:20;11.57;;;1.15;;
75932;SDS011;64803;52.356;5.310;2023-04-24T10:01:46;5.70;;;1.35;;
75932;SDS011;64803;52.356;5.310;2023-04-24T10:06:51;6.63;;;1.23;;
75932;SDS011;64803;52.356;5.310;2023-04-24T10:09:19;4.70;;;1.08;;
75932;SDS011;64803;52.356;5.310;2023-04-24T10:11:48;6.40;;;1.77;;
75932;SDS011;64803;52.356;5.310;2023-04-24T10:14:16;7.38;;;1.70;;
75932;SDS011;64803;52.356;5.310;2023-04-24T10:16:44;5.60;;;1.05;;
75932;SDS011;64803;52.356;5.310;2023-04-24T10:19:13;2.13;;;0.88;;
75932;SDS011;64803;52.356;5.310;2023-04-24T10:21:41;3.22;;;1.00;;
75932;SDS011;64803;52.356;5.310;2023-04-24T10:24:14;3.58;;;0.90;;
75932;SDS011;64803;52.356;5.310;2023-04-24T10:26:42;8.75;;;1.50;;
75932;SDS011;64803;52.356;5.310;2023-04-24T10:29:10;7.40;;;0.98;;
75932;SDS011;64803;52.356;5.310;2023-04-24T10:31:38;4.70;;;1.27;;
75932;SDS011;64803;52.356;5.310;2023-04-24T10:34:05;4.03;;;0.98;;
75932;SDS011;64803;52.356;5.310;2023-04-24T10:36:37;9.18;;;1.40;;
75932;SDS011;64803;52.356;5.310;2023-04-24T10:39:09;9.13;;;1.50;;
75932;SDS011;64803;52.356;5.310;2023-04-24T10:41:38;6.15;;;1.30;;
75932;SDS011;64803;52.356;5.310;2023-04-24T10:44:07;5.22;;;0.85;;
75932;SDS011;64803;52.356;5.310;2023-04-24T10:46:33;8.02;;;1.20;;
75932;SDS011;64803;52.356;5.310;2023-04-24T10:49:00;1.60;;;0.57;;
75932;SDS011;64803;52.356;5.310;2023-04-24T10:51:48;3.42;;;0.95;;
75932;SDS011;64803;52.356;5.310;2023-04-24T10:54:22;2.83;;;0.90;;
75932;SDS011;64803;52.356;5.310;2023-04-24T10:56:52;2.55;;;0.60;;
75932;SDS011;64803;52.356;5.310;2023-04-24T10:59:39;3.58;;;0.52;;
75932;SDS011;64803;52.356;5.310;2023-04-24T11:02:06;3.83;;;0.77;;
75932;SDS011;64803;52.356;5.310;2023-04-24T11:04:33;5.60;;;1.02;;
75932;SDS011;64803;52.356;5.310;2023-04-24T11:07:02;3.15;;;0.90;;
75932;SDS011;64803;52.356;5.310;2023-04-24T11:09:31;2.83;;;0.65;;
75932;SDS011;64803;52.356;5.310;2023-04-24T11:20:06;6.20;;;1.10;;
75932;SDS011;64803;52.356;5.310;2023-04-24T11:22:35;1.85;;;0.57;;
75932;SDS011;64803;52.356;5.310;2023-04-24T11:25:03;3.38;;;0.80;;
75932;SDS011;64803;52.356;5.310;2023-04-24T11:27:32;4.85;;;0.63;;
75932;SDS011;64803;52.356;5.310;2023-04-24T11:30:08;2.55;;;0.70;;
75932;SDS011;64803;52.356;5.310;2023-04-24T11:37:35;1.27;;;0.32;;
75932;SDS011;64803;52.356;5.310;2023-04-24T11:40:03;3.13;;;0.90;;
75932;SDS011;64803;52.356;5.310;2023-04-24T11:42:34;3.70;;;0.68;;
75932;SDS011;64803;52.356;5.310;2023-04-24T11:45:08;3.65;;;0.50;;
75932;SDS011;64803;52.356;5.310;2023-04-24T11:47:35;2.10;;;0.80;;
75932;SDS011;64803;52.356;5.310;2023-04-24T11:50:02;3.83;;;0.88;;
75932;SDS011;64803;52.356;5.310;2023-04-24T11:52:30;3.22;;;1.02;;
75932;SDS011;64803;52.356;5.310;2023-04-24T11:54:56;3.47;;;0.90;;
75932;SDS011;64803;52.356;5.310;2023-04-24T11:57:23;4.70;;;0.90;;
75932;SDS011;64803;52.356;5.310;2023-04-24T11:59:53;4.32;;;1.02;;
75932;SDS011;64803;52.356;5.310;2023-04-24T12:02:22;7.35;;;1.00;;
75932;SDS011;64803;52.356;5.310;2023-04-24T12:04:50;7.78;;;1.48;;
75932;SDS011;64803;52.356;5.310;2023-04-24T12:07:17;3.65;;;0.60;;
75932;SDS011;64803;52.356;5.310;2023-04-24T12:09:47;5.50;;;1.00;;
75932;SDS011;64803;52.356;5.310;2023-04-24T12:12:15;5.15;;;0.77;;
75932;SDS011;64803;52.356;5.310;2023-04-24T12:17:09;4.78;;;0.60;;
75932;SDS011;64803;52.356;5.310;2023-04-24T12:19:35;2.20;;;0.70;;
75932;SDS011;64803;52.356;5.310;2023-04-24T12:22:03;8.32;;;1.10;;
75932;SDS011;64803;52.356;5.310;2023-04-24T12:24:31;5.03;;;1.33;;
75932;SDS011;64803;52.356;5.310;2023-04-24T12:26:57;6.75;;;1.40;;
75932;SDS011;64803;52.356;5.310;2023-04-24T12:29:24;5.20;;;1.33;;
75932;SDS011;64803;52.356;5.310;2023-04-24T12:31:50;4.60;;;1.33;;
75932;SDS011;64803;52.356;5.310;2023-04-24T12:34:18;7.47;;;1.05;;
75932;SDS011;64803;52.356;5.310;2023-04-24T12:36:46;4.38;;;0.47;;
75932;SDS011;64803;52.356;5.310;2023-04-24T12:39:16;3.70;;;0.88;;
75932;SDS011;64803;52.356;5.310;2023-04-24T12:41:55;4.20;;;0.60;;
75932;SDS011;64803;52.356;5.310;2023-04-24T12:44:33;7.57;;;1.23;;
75932;SDS011;64803;52.356;5.310;2023-04-24T12:47:00;11.63;;;1.75;;
75932;SDS011;64803;52.356;5.310;2023-04-24T12:49:27;7.03;;;0.88;;
75932;SDS011;64803;52.356;5.310;2023-04-24T12:51:53;6.93;;;1.27;;
75932;SDS011;64803;52.356;5.310;2023-04-24T12:54:19;2.40;;;0.75;;
75932;SDS011;64803;52.356;5.310;2023-04-24T12:56:45;5.60;;;1.35;;
75932;SDS011;64803;52.356;5.310;2023-04-24T12:59:11;8.68;;;1.70;;
75932;SDS011;64803;52.356;5.310;2023-04-24T13:01:38;13.77;;;2.40;;
75932;SDS011;64803;52.356;5.310;2023-04-24T13:04:05;9.18;;;1.67;;
75932;SDS011;64803;52.356;5.310;2023-04-24T13:06:31;10.13;;;1.50;;
75932;SDS011;64803;52.356;5.310;2023-04-24T13:08:57;14.85;;;2.42;;
75932;SDS011;64803;52.356;5.310;2023-04-24T13:11:24;7.30;;;1.50;;
75932;SDS011;64803;52.356;5.310;2023-04-24T13:13:50;11.05;;;2.22;;
75932;SDS011;64803;52.356;5.310;2023-04-24T13:16:16;11.93;;;1.90;;
75932;SDS011;64803;52.356;5.310;2023-04-24T13:18:42;6.78;;;1.10;;
75932;SDS011;64803;52.356;5.310;2023-04-24T13:21:08;6.50;;;1.00;;
75932;SDS011;64803;52.356;5.310;2023-04-24T13:23:34;6.55;;;1.67;;
75932;SDS011;64803;52.356;5.310;2023-04-24T13:26:00;8.10;;;1.23;;
75932;SDS011;64803;52.356;5.310;2023-04-24T13:28:26;5.32;;;1.23;;
75932;SDS011;64803;52.356;5.310;2023-04-24T13:30:53;9.68;;;2.20;;
75932;SDS011;64803;52.356;5.310;2023-04-24T13:33:19;12.55;;;2.42;;
75932;SDS011;64803;52.356;5.310;2023-04-24T13:35:45;9.60;;;1.98;;
75932;SDS011;64803;52.356;5.310;2023-04-24T13:38:11;4.78;;;1.40;;
75932;SDS011;64803;52.356;5.310;2023-04-24T13:40:37;11.52;;;2.05;;
75932;SDS011;64803;52.356;5.310;2023-04-24T13:43:03;8.02;;;2.35;;
75932;SDS011;64803;52.356;5.310;2023-04-24T13:45:29;12.52;;;2.40;;
75932;SDS011;64803;52.356;5.310;2023-04-24T13:47:55;15.18;;;3.13;;
75932;SDS011;64803;52.356;5.310;2023-04-24T13:50:22;12.25;;;2.35;;
75932;SDS011;64803;52.356;5.310;2023-04-24T13:52:48;10.20;;;1.90;;
75932;SDS011;64803;52.356;5.310;2023-04-24T13:55:15;12.40;;;2.55;;
75932;SDS011;64803;52.356;5.310;2023-04-24T13:57:41;7.30;;;1.60;;
75932;SDS011;64803;52.356;5.310;2023-04-24T14:00:07;8.32;;;1.77;;
75932;SDS011;64803;52.356;5.310;2023-04-24T14:02:35;7.25;;;1.70;;
75932;SDS011;64803;52.356;5.310;2023-04-24T14:05:02;8.68;;;1.48;;
75932;SDS011;64803;52.356;5.310;2023-04-24T14:07:29;6.20;;;1.45;;
75932;SDS011;64803;52.356;5.310;2023-04-24T14:09:55;10.32;;;2.22;;
75932;SDS011;64803;52.356;5.310;2023-04-24T14:12:21;6.10;;;1.38;;
75932;SDS011;64803;52.356;5.310;2023-04-24T14:14:47;6.72;;;1.60;;
75932;SDS011;64803;52.356;5.310;2023-04-24T14:17:14;5.47;;;1.20;;
75932;SDS011;64803;52.356;5.310;2023-04-24T14:19:40;8.00;;;1.95;;
75932;SDS011;64803;52.356;5.310;2023-04-24T14:22:06;8.57;;;1.80;;
75932;SDS011;64803;52.356;5.310;2023-04-24T14:24:32;9.95;;;2.15;;
75932;SDS011;64803;52.356;5.310;2023-04-24T14:26:58;9.30;;;1.75;;
75932;SDS011;64803;52.356;5.310;2023-04-24T14:29:24;8.88;;;1.60;;
75932;SDS011;64803;52.356;5.310;2023-04-24T14:31:51;5.65;;;1.70;;
75932;SDS011;64803;52.356;5.310;2023-04-24T14:34:17;6.90;;;1.55;;
75932;SDS011;64803;52.356;5.310;2023-04-24T14:36:43;7.20;;;2.13;;
75932;SDS011;64803;52.356;5.310;2023-04-24T14:39:09;6.53;;;1.30;;
75932;SDS011;64803;52.356;5.310;2023-04-24T14:41:35;13.48;;;1.45;;
75932;SDS011;64803;52.356;5.310;2023-04-24T14:44:02;8.80;;;1.55;;
75932;SDS011;64803;52.356;5.310;2023-04-24T14:46:29;9.77;;;2.30;;
75932;SDS011;64803;52.356;5.310;2023-04-24T14:48:58;7.93;;;1.33;;
75932;SDS011;64803;52.356;5.310;2023-04-24T14:51:24;5.00;;;1.67;;
75932;SDS011;64803;52.356;5.310;2023-04-24T14:53:51;13.40;;;2.75;;
75932;SDS011;64803;52.356;5.310;2023-04-24T14:56:17;14.60;;;2.90;;
75932;SDS011;64803;52.356;5.310;2023-04-24T14:58:43;19.85;;;2.92;;
75932;SDS011;64803;52.356;5.310;2023-04-24T15:01:10;11.82;;;2.25;;
75932;SDS011;64803;52.356;5.310;2023-04-24T15:03:36;9.38;;;2.10;;
75932;SDS011;64803;52.356;5.310;2023-04-24T15:06:02;7.90;;;1.80;;
75932;SDS011;64803;52.356;5.310;2023-04-24T15:08:28;8.50;;;2.50;;
75932;SDS011;64803;52.356;5.310;2023-04-24T15:10:54;9.27;;;2.08;;